sensor_id;sensor_type;location;lat;lon;timestamp;temperature;humidity
4079;DHT22;2054;47.858;11.156;2023-07-28T17:13:02;26.30;82.40
4079;DHT22;2054;47.858;11.156;2023-07-28T17:15:29;26.10;83.30
4079;DHT22;2054;47.858;11.156;2023-07-28T17:17:59;25.50;87.10
4079;DHT22;2054;47.858;11.156;2023-07-28T17:20:26;25.00;90.70
4079;DHT22;2054;47.858;11.156;2023-07-28T17:22:53;24.60;92.40
4079;DHT22;2054;47.858;11.156;2023-07-28T17:25:21;24.00;94.70
4079;DHT22;2054;47.858;11.156;2023-07-28T17:27:48;23.80;96.60
4079;DHT22;2054;47.858;11.156;2023-07-28T17:30:15;23.60;98.40
4079;DHT22;2054;47.858;11.156;2023-07-28T17:32:42;23.50;99.90
4079;DHT22;2054;47.858;11.156;2023-07-28T17:35:12;23.30;99.90
4079;DHT22;2054;47.858;11.156;2023-07-28T17:37:39;23.30;99.90
4079;DHT22;2054;47.858;11.156;2023-07-28T17:40:07;23.10;99.90
4079;DHT22;2054;47.858;11.156;2023-07-28T17:42:34;23.00;99.90
4079;DHT22;2054;47.858;11.156;2023-07-28T17:45:01;22.70;99.90
4079;DHT22;2054;47.858;11.156;2023-07-28T17:47:31;22.60;99.90
4079;DHT22;2054;47.858;11.156;2023-07-28T17:49:59;22.40;99.90
4079;DHT22;2054;47.858;11.156;2023-07-28T17:52:28;22.30;99.90
4079;DHT22;2054;47.858;11.156;2023-07-28T17:54:54;22.40;99.90
4079;DHT22;2054;47.858;11.156;2023-07-28T17:57:22;22.20;99.90
4079;DHT22;2054;47.858;11.156;2023-07-28T17:59:48;21.90;99.90
4079;DHT22;2054;47.858;11.156;2023-07-28T18:02:15;21.50;99.90
4079;DHT22;2054;47.858;11.156;2023-07-28T18:04:42;20.70;99.90
4079;DHT22;2054;47.858;11.156;2023-07-28T18:07:09;19.80;99.90
4079;DHT22;2054;47.858;11.156;2023-07-28T18:09:37;19.70;99.90
4079;DHT22;2054;47.858;11.156;2023-07-28T18:12:05;19.60;99.90
4079;DHT22;2054;47.858;11.156;2023-07-28T18:14:32;19.50;99.90
4079;DHT22;2054;47.858;11.156;2023-07-28T18:16:59;19.50;99.90
4079;DHT22;2054;47.858;11.156;2023-07-28T18:19:26;19.50;99.90
4079;DHT22;2054;47.858;11.156;2023-07-28T18:21:53;19.40;99.90
4079;DHT22;2054;47.858;11.156;2023-07-28T18:24:20;19.40;99.90
4079;DHT22;2054;47.858;11.156;2023-07-28T18:26:50;19.40;99.90
4079;DHT22;2054;47.858;11.156;2023-07-28T18:29:16;19.40;99.90
4079;DHT22;2054;47.858;11.156;2023-07-28T18:31:43;19.50;99.90
4079;DHT22;2054;47.858;11.156;2023-07-28T18:34:10;19.50;99.90
4079;DHT22;2054;47.858;11.156;2023-07-28T18:36:37;19.50;99.90
4079;DHT22;2054;47.858;11.156;2023-07-28T18:39:04;19.60;99.90
4079;DHT22;2054;47.858;11.156;2023-07-28T18:41:31;19.70;99.90
4079;DHT22;2054;47.858;11.156;2023-07-28T18:43:59;19.80;99.90
4079;DHT22;2054;47.858;11.156;2023-07-28T18:46:26;19.80;99.90
4079;DHT22;2054;47.858;11.156;2023-07-28T18:48:53;19.90;99.90
4079;DHT22;2054;47.858;11.156;2023-07-28T18:51:20;19.90;99.90
4079;DHT22;2054;47.858;11.156;2023-07-28T18:53:47;20.00;99.90
4079;DHT22;2054;47.858;11.156;2023-07-28T18:56:16;20.00;99.90
4079;DHT22;2054;47.858;11.156;2023-07-28T18:58:43;19.90;99.90
4079;DHT22;2054;47.858;11.156;2023-07-28T19:01:11;19.90;99.90
4079;DHT22;2054;47.858;11.156;2023-07-28T19:03:39;19.90;99.90
4079;DHT22;2054;47.858;11.156;2023-07-28T19:06:06;19.90;99.90
4079;DHT22;2054;47.858;11.156;2023-07-28T19:08:33;19.80;99.90
4079;DHT22;2054;47.858;11.156;2023-07-28T19:11:00;19.80;99.90
4079;DHT22;2054;47.858;11.156;2023-07-28T19:13:28;19.80;99.90
4079;DHT22;2054;47.858;11.156;2023-07-28T19:15:56;19.80;99.90
4079;DHT22;2054;47.858;11.156;2023-07-28T19:18:24;19.80;99.90
4079;DHT22;2054;47.858;11.156;2023-07-28T19:20:51;19.80;99.90
4079;DHT22;2054;47.858;11.156;2023-07-28T19:23:21;19.80;99.90
4079;DHT22;2054;47.858;11.156;2023-07-28T19:25:49;19.70;99.90
4079;DHT22;2054;47.858;11.156;2023-07-28T19:28:17;19.70;99.90
4079;DHT22;2054;47.858;11.156;2023-07-28T19:30:44;19.70;99.90
4079;DHT22;2054;47.858;11.156;2023-07-28T19:33:11;19.70;99.90
4079;DHT22;2054;47.858;11.156;2023-07-28T19:35:39;19.70;99.90
4079;DHT22;2054;47.858;11.156;2023-07-28T19:38:07;19.70;99.90
4079;DHT22;2054;47.858;11.156;2023-07-28T19:40:34;19.70;99.90
4079;DHT22;2054;47.858;11.156;2023-07-28T19:43:01;19.70;99.90
4079;DHT22;2054;47.858;11.156;2023-07-28T19:45:28;19.60;99.90
4079;DHT22;2054;47.858;11.156;2023-07-28T19:47:55;19.60;99.90
4079;DHT22;2054;47.858;11.156;2023-07-28T19:50:22;19.60;99.90
4079;DHT22;2054;47.858;11.156;2023-07-28T19:52:50;19.60;99.90
4079;DHT22;2054;47.858;11.156;2023-07-28T19:55:17;19.60;99.90
4079;DHT22;2054;47.858;11.156;2023-07-28T19:57:44;19.60;99.90
4079;DHT22;2054;47.858;11.156;2023-07-28T20:00:11;19.50;99.90
4079;DHT22;2054;47.858;11.156;2023-07-28T20:02:38;19.50;99.90
4079;DHT22;2054;47.858;11.156;2023-07-28T20:05:06;19.40;99.90
4079;DHT22;2054;47.858;11.156;2023-07-28T20:07:34;19.40;99.90
4079;DHT22;2054;47.858;11.156;2023-07-28T20:10:03;19.40;99.90
4079;DHT22;2054;47.858;11.156;2023-07-28T20:12:30;19.40;99.90
4079;DHT22;2054;47.858;11.156;2023-07-28T20:14:57;19.40;99.90
4079;DHT22;2054;47.858;11.156;2023-07-28T20:17:24;19.30;99.90
4079;DHT22;2054;47.858;11.156;2023-07-28T20:19:52;19.30;99.90
4079;DHT22;2054;47.858;11.156;2023-07-28T20:22:19;19.30;99.90
4079;DHT22;2054;47.858;11.156;2023-07-28T20:24:46;19.30;99.90
4079;DHT22;2054;47.858;11.156;2023-07-28T20:27:14;19.20;99.90
4079;DHT22;2054;47.858;11.156;2023-07-28T20:29:41;19.10;99.90
4079;DHT22;2054;47.858;11.156;2023-07-28T20:32:09;19.10;99.90
4079;DHT22;2054;47.858;11.156;2023-07-28T20:34:36;19.10;99.90
4079;DHT22;2054;47.858;11.156;2023-07-28T20:37:03;19.10;99.90
4079;DHT22;2054;47.858;11.156;2023-07-28T20:39:30;19.10;99.90
4079;DHT22;2054;47.858;11.156;2023-07-28T20:41:57;19.10;99.90
4079;DHT22;2054;47.858;11.156;2023-07-28T20:44:25;19.10;99.90
4079;DHT22;2054;47.858;11.156;2023-07-28T20:46:52;19.00;99.90
4079;DHT22;2054;47.858;11.156;2023-07-28T20:49:19;18.90;99.90
4079;DHT22;2054;47.858;11.156;2023-07-28T20:51:46;18.90;99.90
4079;DHT22;2054;47.858;11.156;2023-07-28T20:54:13;18.80;99.90
4079;DHT22;2054;47.858;11.156;2023-07-28T20:56:39;18.80;99.90
4079;DHT22;2054;47.858;11.156;2023-07-28T20:59:06;18.80;99.90
